createdAt,value
2023-05-04T00:01:03.938Z,7.20
2023-05-04T00:05:06.520Z,7.20
2023-05-04T00:09:08.234Z,7.10
2023-05-04T00:13:10.142Z,7.00
2023-05-04T00:17:12.760Z,7.00
2023-05-04T00:21:14.444Z,7.00
2023-05-04T00:25:19.145Z,6.90
2023-05-04T00:29:21.294Z,6.90
2023-05-04T00:33:22.982Z,6.90
2023-05-04T00:37:24.720Z,6.80
2023-05-04T00:41:26.471Z,6.70
2023-05-04T00:45:28.151Z,6.70
2023-05-04T00:49:29.858Z,6.60
2023-05-04T00:53:31.617Z,6.60
2023-05-04T00:57:33.334Z,6.50
2023-05-04T01:01:35.228Z,6.40
2023-05-04T01:05:40.905Z,6.30
2023-05-04T01:09:52.235Z,6.30
2023-05-04T01:13:54.002Z,6.20
2023-05-04T01:17:55.754Z,6.10
2023-05-04T01:21:57.603Z,6.10
2023-05-04T01:26:17.262Z,6.00
2023-05-04T01:30:24.190Z,6.00
2023-05-04T01:34:25.983Z,5.90
2023-05-04T01:38:28.049Z,5.90
2023-05-04T01:42:29.745Z,5.80
2023-05-04T01:46:31.742Z,5.80
2023-05-04T01:50:33.538Z,5.70
2023-05-04T01:54:35.343Z,5.70
2023-05-04T01:58:37.021Z,5.60
2023-05-04T02:02:45.292Z,5.60
2023-05-04T02:06:54.279Z,5.50
2023-05-04T02:11:02.180Z,5.60
2023-05-04T02:15:10.203Z,5.50
2023-05-04T02:19:18.240Z,5.40
2023-05-04T02:23:26.231Z,5.40
2023-05-04T02:27:28.000Z,5.40
2023-05-04T02:31:29.917Z,5.50
2023-05-04T02:35:31.734Z,5.50
2023-05-04T02:39:33.518Z,5.40
2023-05-04T02:43:35.245Z,5.30
2023-05-04T02:47:37.069Z,5.30
2023-05-04T02:51:38.786Z,5.20
2023-05-04T02:55:40.663Z,5.10
2023-05-04T02:59:42.413Z,5.10
2023-05-04T03:03:44.245Z,5.10
2023-05-04T03:07:48.628Z,5.00
2023-05-04T03:11:50.414Z,4.90
2023-05-04T03:15:52.100Z,4.90
2023-05-04T03:19:53.837Z,5.00
2023-05-04T03:23:55.618Z,5.00
2023-05-04T03:28:00.440Z,5.10
2023-05-04T03:32:02.270Z,5.10
2023-05-04T03:36:04.494Z,5.00
2023-05-04T03:40:07.241Z,5.00
2023-05-04T03:44:09.164Z,5.00
2023-05-04T03:48:11.133Z,5.00
2023-05-04T03:52:12.939Z,5.60
2023-05-04T03:56:14.706Z,6.30
2023-05-04T04:00:19.656Z,7.30
2023-05-04T04:04:21.500Z,8.10
2023-05-04T04:08:25.642Z,8.90
2023-05-04T04:12:27.413Z,10.10
2023-05-04T04:16:29.141Z,11.20
2023-05-04T04:20:31.044Z,12.30
2023-05-04T04:24:33.634Z,12.90
2023-05-04T04:28:35.310Z,12.90
2023-05-04T04:32:37.699Z,13.10
2023-05-04T04:36:40.334Z,13.90
2023-05-04T04:40:47.210Z,15.20
2023-05-04T04:45:28.632Z,16.40
2023-05-04T04:49:30.506Z,17.50
2023-05-04T04:53:32.317Z,18.50
2023-05-04T04:57:34.193Z,19.10
2023-05-04T05:01:36.048Z,19.50
2023-05-04T05:05:37.910Z,19.90
2023-05-04T05:09:47.263Z,19.90
2023-05-04T05:14:16.179Z,20.50
2023-05-04T05:18:17.942Z,20.90
2023-05-04T05:22:19.704Z,19.90
2023-05-04T05:26:21.777Z,20.30
2023-05-04T05:30:23.706Z,19.50
2023-05-04T05:34:25.635Z,20.60
2023-05-04T05:38:27.541Z,20.90
2023-05-04T05:42:30.558Z,21.10
2023-05-04T05:46:32.548Z,21.20
2023-05-04T05:50:34.544Z,20.50
2023-05-04T05:54:36.726Z,21.90
2023-05-04T05:58:39.477Z,21.90
2023-05-04T06:02:54.121Z,22.70
2023-05-04T06:06:56.364Z,21.90
2023-05-04T06:10:58.127Z,21.70
2023-05-04T06:14:59.941Z,22.30
2023-05-04T06:19:02.061Z,22.50
2023-05-04T06:23:05.258Z,21.90
2023-05-04T06:27:07.480Z,22.00
2023-05-04T06:31:09.546Z,23.10
2023-05-04T06:35:11.794Z,23.10
2023-05-04T06:39:13.810Z,22.00
2023-05-04T06:43:16.107Z,22.90
2023-05-04T06:47:17.908Z,22.70
2023-05-04T06:51:21.041Z,23.60
2023-05-04T06:55:23.002Z,25.20
2023-05-04T06:59:24.709Z,25.30
2023-05-04T07:03:27.191Z,25.00
2023-05-04T07:07:32.136Z,25.70
2023-05-04T07:11:33.997Z,25.20
2023-05-04T07:15:36.012Z,25.60
2023-05-04T07:19:37.942Z,25.70
2023-05-04T07:23:39.764Z,25.60
2023-05-04T07:27:43.795Z,24.00
2023-05-04T07:31:45.635Z,24.00
2023-05-04T07:35:48.098Z,24.60
2023-05-04T07:39:49.843Z,24.60
2023-05-04T07:43:51.667Z,24.20
2023-05-04T07:47:53.443Z,24.40
2023-05-04T07:51:57.523Z,24.10
2023-05-04T07:56:07.922Z,24.50
2023-05-04T08:00:10.935Z,25.00
2023-05-04T08:04:12.729Z,24.90
2023-05-04T08:08:14.690Z,24.70
2023-05-04T08:12:16.639Z,24.20
2023-05-04T08:16:18.483Z,24.30
2023-05-04T08:20:21.767Z,23.60
2023-05-04T08:24:25.631Z,23.40
2023-05-04T08:28:27.580Z,23.30
2023-05-04T08:32:31.104Z,23.90
2023-05-04T08:36:35.023Z,24.10
2023-05-04T08:40:39.600Z,24.40
2023-05-04T08:44:49.088Z,24.10
2023-05-04T08:48:52.319Z,23.90
2023-05-04T08:52:55.706Z,23.30
2023-05-04T08:57:08.910Z,23.70
2023-05-04T09:01:11.125Z,23.30
2023-05-04T09:05:13.319Z,23.10
2023-05-04T09:09:16.797Z,22.50
2023-05-04T09:13:22.263Z,22.70
2023-05-04T09:17:29.421Z,23.00
2023-05-04T09:21:41.498Z,22.80
2023-05-04T09:25:52.943Z,22.60
2023-05-04T09:30:03.960Z,23.00
2023-05-04T09:34:22.999Z,23.10
2023-05-04T09:38:29.002Z,22.80
2023-05-04T09:42:32.159Z,22.70
2023-05-04T09:46:36.957Z,21.60
2023-05-04T09:50:53.969Z,21.60
2023-05-04T09:54:58.587Z,21.70
2023-05-04T09:59:00.905Z,21.10
2023-05-04T10:03:15.828Z,20.60
2023-05-04T10:07:23.153Z,20.90
2023-05-04T10:11:27.140Z,21.30
2023-05-04T10:15:33.739Z,20.90
2023-05-04T10:19:48.462Z,21.00
2023-05-04T10:24:42.486Z,20.50
2023-05-04T10:33:24.128Z,20.50
2023-05-04T10:37:26.144Z,20.50
2023-05-04T10:41:28.152Z,20.70
2023-05-04T10:45:39.865Z,21.00
2023-05-04T10:49:41.744Z,21.20
2023-05-04T10:53:43.613Z,21.70
2023-05-04T10:57:56.273Z,21.80
2023-05-04T11:01:58.165Z,21.30
2023-05-04T11:06:04.520Z,21.30
2023-05-04T11:10:08.339Z,21.20
2023-05-04T11:14:10.802Z,21.70
2023-05-04T11:18:12.697Z,21.90
2023-05-04T11:22:15.397Z,21.80
2023-05-04T11:26:18.528Z,21.90
2023-05-04T11:30:20.322Z,21.60
2023-05-04T11:34:24.309Z,21.60
2023-05-04T11:38:26.430Z,21.40
2023-05-04T11:42:28.291Z,22.40
2023-05-04T11:46:32.980Z,22.60
2023-05-04T11:50:35.024Z,22.40
2023-05-04T11:54:42.808Z,22.80
2023-05-04T11:58:50.024Z,22.30
2023-05-04T12:02:56.245Z,21.50
2023-05-04T12:07:00.328Z,21.80
2023-05-04T12:11:26.229Z,21.80
2023-05-04T12:15:37.896Z,22.10
2023-05-04T12:19:54.259Z,22.10
2023-05-04T12:23:59.803Z,22.70
2023-05-04T12:28:04.647Z,22.20
2023-05-04T12:32:06.838Z,22.20
2023-05-04T12:36:09.044Z,22.20
2023-05-04T12:40:25.104Z,22.00
2023-05-04T12:44:29.750Z,22.70
2023-05-04T12:48:33.087Z,23.50
2023-05-04T12:52:43.741Z,23.30
2023-05-04T12:56:45.545Z,23.40
2023-05-04T13:00:50.140Z,23.80
2023-05-04T13:05:01.014Z,23.60
2023-05-04T13:09:06.557Z,23.80
2023-05-04T13:13:10.915Z,23.90
2023-05-04T13:17:15.917Z,23.20
2023-05-04T13:21:20.230Z,23.00
2023-05-04T13:25:24.945Z,22.60
2023-05-04T13:29:27.048Z,22.10
2023-05-04T13:33:30.708Z,22.40
2023-05-04T13:37:38.348Z,22.60
2023-05-04T13:41:40.143Z,22.90
2023-05-04T13:45:44.313Z,23.10
2023-05-04T13:49:58.119Z,23.10
2023-05-04T13:54:02.346Z,23.20
2023-05-04T14:02:23.569Z,22.80
2023-05-04T14:06:26.173Z,23.10
2023-05-04T14:10:28.089Z,23.20
2023-05-04T14:14:34.549Z,23.30
2023-05-04T14:18:43.965Z,23.60
2023-05-04T14:22:45.782Z,23.40
2023-05-04T14:26:47.487Z,23.20
2023-05-04T14:30:49.612Z,22.50
2023-05-04T14:34:53.617Z,22.60
2023-05-04T14:38:55.429Z,22.80
2023-05-04T14:42:59.760Z,22.70
2023-05-04T14:47:05.436Z,22.70
2023-05-04T14:51:09.487Z,22.80
2023-05-04T14:55:11.627Z,22.70
2023-05-04T14:59:13.798Z,22.40
2023-05-04T15:03:15.640Z,22.40
2023-05-04T15:07:20.852Z,22.50
2023-05-04T15:11:22.812Z,22.60
2023-05-04T15:15:24.641Z,22.60
2023-05-04T15:19:26.467Z,22.30
2023-05-04T15:23:28.252Z,22.30
2023-05-04T15:27:31.405Z,22.00
2023-05-04T15:31:33.199Z,22.10
2023-05-04T15:35:37.717Z,22.10
2023-05-04T15:39:39.478Z,22.10
2023-05-04T15:43:41.460Z,22.00
2023-05-04T15:47:43.474Z,21.90
2023-05-04T15:51:54.030Z,21.70
2023-05-04T15:55:56.054Z,21.70
2023-05-04T15:59:59.387Z,21.50
2023-05-04T16:04:26.701Z,21.40
2023-05-04T16:08:34.076Z,21.40
2023-05-04T16:12:35.992Z,21.40
2023-05-04T16:16:45.405Z,21.40
2023-05-04T16:20:47.663Z,21.20
2023-05-04T16:24:51.102Z,21.20
2023-05-04T16:30:02.942Z,21.10
2023-05-04T16:39:07.214Z,20.90
2023-05-04T16:43:25.182Z,20.70
2023-05-04T16:47:27.341Z,20.50
2023-05-04T16:53:41.837Z,20.50
2023-05-04T16:56:29.634Z,20.20
2023-05-04T17:00:49.180Z,20.00
2023-05-04T17:04:51.174Z,19.90
2023-05-04T17:08:52.911Z,19.90
2023-05-04T17:12:57.331Z,19.80
2023-05-04T17:17:04.394Z,19.70
2023-05-04T17:21:12.046Z,19.60
2023-05-04T17:35:59.761Z,19.40
2023-05-04T17:40:27.344Z,19.30
2023-05-04T17:44:33.460Z,19.20
2023-05-04T17:48:42.627Z,19.00
2023-05-04T17:52:48.342Z,18.90
2023-05-04T18:21:36.096Z,18.20
2023-05-04T18:25:47.485Z,18.00
2023-05-04T19:03:39.315Z,16.90
2023-05-04T19:07:46.724Z,16.80
2023-05-04T19:17:22.190Z,16.50
2023-05-04T19:21:27.826Z,16.40
2023-05-04T19:26:36.210Z,16.30
2023-05-04T20:09:41.021Z,14.80
2023-05-04T20:14:41.569Z,14.60
2023-05-04T20:18:46.467Z,14.40
2023-05-04T20:40:06.273Z,13.90
2023-05-04T20:44:14.830Z,13.80
2023-05-04T20:48:29.676Z,13.70
2023-05-04T20:52:33.775Z,13.70
2023-05-04T20:56:41.709Z,13.60
2023-05-04T21:05:51.355Z,13.50
2023-05-04T21:09:57.873Z,13.50
2023-05-04T21:13:59.683Z,13.40
2023-05-04T21:18:01.544Z,13.30
2023-05-04T21:22:06.197Z,13.20
2023-05-04T21:26:09.034Z,13.10
2023-05-04T21:30:15.783Z,13.00
2023-05-04T21:34:28.430Z,12.90
2023-05-04T21:38:30.222Z,12.80
2023-05-04T21:42:32.181Z,12.80
2023-05-04T21:46:34.004Z,12.70
2023-05-04T21:50:35.778Z,12.70
2023-05-04T21:54:37.613Z,12.70
2023-05-04T21:58:40.697Z,12.60
2023-05-04T22:02:45.850Z,12.60
2023-05-04T22:06:48.346Z,12.60
2023-05-04T22:10:54.129Z,12.50
2023-05-04T22:14:55.826Z,12.40
2023-05-04T22:18:57.646Z,12.30
2023-05-04T22:23:01.322Z,12.20
2023-05-04T22:27:03.713Z,12.10
2023-05-04T22:31:05.633Z,12.00
2023-05-04T22:35:07.722Z,11.90
2023-05-04T22:39:09.592Z,11.80
2023-05-04T22:43:11.317Z,11.70
2023-05-04T22:47:12.999Z,11.60
2023-05-04T22:51:14.831Z,11.50
2023-05-04T22:55:16.788Z,11.40
2023-05-04T22:59:18.592Z,11.40
2023-05-04T23:03:20.401Z,11.30
2023-05-04T23:07:22.140Z,11.30
2023-05-04T23:11:24.020Z,11.20
2023-05-04T23:15:25.799Z,11.20
2023-05-04T23:19:28.198Z,11.10
2023-05-04T23:23:30.003Z,11.10
2023-05-04T23:27:31.737Z,11.00
2023-05-04T23:31:33.519Z,11.00
2023-05-04T23:35:35.258Z,10.90
2023-05-04T23:39:36.948Z,10.90
2023-05-04T23:43:38.753Z,10.80
2023-05-04T23:47:40.778Z,10.80
2023-05-04T23:51:42.559Z,10.80
2023-05-04T23:55:44.268Z,10.70
2023-05-04T23:59:46.077Z,10.60
